createdAt,value
2018-07-02T00:03:28.278Z,12.60
2018-07-02T00:08:24.012Z,12.70
2018-07-02T00:13:20.047Z,12.60
2018-07-02T00:18:15.809Z,12.40
2018-07-02T00:28:05.858Z,12.10
2018-07-02T00:33:01.439Z,12.10
2018-07-02T00:37:57.264Z,12.10
2018-07-02T00:42:52.996Z,11.90
2018-07-02T00:47:48.442Z,11.90
2018-07-02T00:52:43.876Z,11.90
2018-07-02T00:57:39.244Z,11.80
2018-07-02T01:02:34.636Z,11.70
2018-07-02T01:07:30.276Z,11.60
2018-07-02T01:12:25.689Z,11.40
2018-07-02T01:17:21.714Z,11.10
2018-07-02T01:22:17.303Z,11.00
2018-07-02T01:27:12.919Z,11.10
2018-07-02T01:32:08.562Z,11.10
2018-07-02T01:37:05.650Z,11.00
2018-07-02T01:42:04.096Z,10.90
2018-07-02T01:47:00.513Z,10.90
2018-07-02T01:51:55.941Z,10.90
2018-07-02T01:56:51.313Z,10.60
2018-07-02T02:01:46.929Z,10.40
2018-07-02T02:06:42.499Z,10.30
2018-07-02T02:11:38.195Z,10.30
2018-07-02T02:16:33.566Z,10.30
2018-07-02T02:21:29.797Z,10.30
2018-07-02T02:26:25.412Z,10.20
2018-07-02T02:31:20.984Z,10.10
2018-07-02T02:36:16.439Z,9.80
2018-07-02T02:41:12.165Z,9.70
2018-07-02T02:46:07.730Z,9.70
2018-07-02T02:51:05.392Z,9.60
2018-07-02T02:56:00.666Z,9.70
2018-07-02T03:05:52.372Z,9.90
2018-07-02T03:10:48.509Z,10.00
2018-07-02T03:15:44.629Z,9.90
2018-07-02T03:20:41.660Z,9.80
2018-07-02T03:25:37.794Z,9.80
2018-07-02T03:30:34.857Z,9.80
2018-07-02T03:35:31.580Z,9.80
2018-07-02T03:40:28.194Z,9.90
2018-07-02T03:45:23.646Z,9.90
2018-07-02T03:50:19.689Z,9.90
2018-07-02T03:55:15.247Z,10.00
2018-07-02T04:00:11.780Z,10.20
2018-07-02T04:05:07.362Z,11.00
2018-07-02T04:10:04.915Z,11.70
2018-07-02T04:15:00.605Z,11.50
2018-07-02T04:19:57.179Z,12.70
2018-07-02T04:24:52.394Z,13.80
2018-07-02T04:29:48.682Z,14.90
2018-07-02T04:34:44.010Z,15.70
2018-07-02T04:39:40.856Z,16.40
2018-07-02T04:44:36.305Z,17.00
2018-07-02T04:49:31.828Z,17.30
2018-07-02T04:54:27.236Z,18.10
2018-07-02T04:59:24.617Z,18.80
2018-07-02T05:04:21.880Z,18.30
2018-07-02T05:09:17.620Z,18.00
2018-07-02T05:14:13.105Z,18.20
2018-07-02T05:19:09.666Z,17.40
2018-07-02T05:24:05.574Z,16.90
2018-07-02T05:29:01.617Z,17.90
2018-07-02T05:33:57.667Z,19.40
2018-07-02T05:38:53.712Z,20.00
2018-07-02T05:43:49.356Z,20.60
2018-07-02T05:48:46.106Z,20.50
2018-07-02T05:53:41.965Z,20.90
2018-07-02T05:58:37.756Z,21.10
2018-07-02T06:03:33.513Z,21.10
2018-07-02T06:13:24.042Z,21.20
2018-07-02T06:18:20.952Z,21.40
2018-07-02T06:23:17.874Z,21.80
2018-07-02T06:28:13.481Z,22.70
2018-07-02T06:33:09.590Z,21.30
2018-07-02T06:38:06.340Z,20.60
2018-07-02T06:43:02.155Z,19.40
2018-07-02T06:47:58.169Z,19.30
2018-07-02T06:57:48.825Z,20.30
2018-07-02T07:02:45.088Z,21.10
2018-07-02T07:07:41.194Z,22.70
2018-07-02T07:12:37.759Z,23.30
2018-07-02T07:22:28.607Z,23.00
2018-07-02T07:27:24.806Z,22.80
2018-07-02T07:32:20.531Z,23.40
2018-07-02T07:37:16.078Z,23.90
2018-07-02T07:42:14.011Z,23.90
2018-07-02T07:47:11.321Z,23.80
2018-07-02T07:57:06.464Z,25.50
2018-07-02T08:02:06.135Z,26.30
2018-07-02T08:07:01.448Z,25.70
2018-07-02T08:11:58.243Z,26.90
2018-07-02T08:16:53.846Z,26.00
2018-07-02T08:21:50.087Z,26.00
2018-07-02T08:26:45.621Z,25.40
2018-07-02T08:31:42.727Z,25.50
2018-07-02T08:36:38.226Z,25.30
2018-07-02T08:41:33.717Z,23.70
2018-07-02T08:46:30.246Z,24.80
2018-07-02T08:51:26.579Z,25.00
2018-07-02T08:56:22.279Z,24.10
2018-07-02T09:01:18.087Z,24.30
2018-07-02T09:06:15.678Z,26.40
2018-07-02T09:11:14.104Z,28.10
2018-07-02T09:16:13.195Z,28.30
2018-07-02T09:21:09.019Z,28.60
2018-07-02T09:26:05.216Z,28.50
2018-07-02T09:31:03.395Z,28.10
2018-07-02T09:41:16.240Z,28.20
2018-07-02T09:46:12.048Z,29.00
2018-07-02T09:51:08.781Z,28.90
2018-07-02T09:56:06.273Z,28.80
2018-07-02T10:01:03.258Z,29.30
2018-07-02T10:05:58.926Z,29.40
2018-07-02T10:10:55.400Z,29.10
2018-07-02T10:15:51.470Z,28.70
2018-07-02T10:20:48.289Z,28.50
2018-07-02T10:25:44.369Z,28.90
2018-07-02T10:30:41.066Z,29.00
2018-07-02T10:35:38.736Z,29.20
2018-07-02T10:40:34.663Z,29.20
2018-07-02T10:45:31.927Z,29.00
2018-07-02T10:50:28.074Z,28.50
2018-07-02T10:55:24.312Z,27.30
2018-07-02T11:00:20.289Z,26.70
2018-07-02T11:05:16.534Z,25.60
2018-07-02T11:10:12.769Z,24.90
2018-07-02T11:15:09.916Z,24.90
2018-07-02T11:20:10.824Z,24.90
2018-07-02T11:25:08.093Z,25.00
2018-07-02T11:30:06.513Z,24.90
2018-07-02T11:35:03.407Z,24.70
2018-07-02T11:40:00.942Z,24.80
2018-07-02T11:44:58.657Z,24.90
2018-07-02T11:49:54.561Z,24.90
2018-07-02T11:54:50.663Z,25.10
2018-07-02T11:59:47.392Z,25.20
2018-07-02T12:04:45.960Z,24.70
2018-07-02T12:09:42.136Z,24.40
2018-07-02T12:14:39.152Z,24.50
2018-07-02T12:19:35.004Z,24.60
2018-07-02T12:24:32.434Z,24.60
2018-07-02T12:29:28.336Z,24.70
2018-07-02T12:34:24.758Z,24.80
2018-07-02T12:39:22.262Z,24.30
2018-07-02T12:44:19.318Z,24.70
2018-07-02T12:49:16.092Z,24.60
2018-07-02T12:54:11.938Z,24.40
2018-07-02T12:59:08.059Z,24.60
2018-07-02T13:04:05.155Z,24.90
2018-07-02T13:09:02.696Z,25.10
2018-07-02T13:13:59.254Z,25.00
2018-07-02T13:18:54.758Z,24.80
2018-07-02T13:23:50.342Z,24.70
2018-07-02T13:28:45.881Z,24.80
2018-07-02T13:33:43.019Z,24.60
2018-07-02T13:38:39.062Z,25.00
2018-07-02T13:43:34.414Z,24.90
2018-07-02T13:48:29.784Z,25.00
2018-07-02T13:53:25.129Z,25.00
2018-07-02T13:58:21.583Z,24.80
2018-07-02T14:03:17.272Z,24.60
2018-07-02T14:08:13.482Z,24.70
2018-07-02T14:13:09.085Z,24.30
2018-07-02T14:18:05.724Z,24.40
2018-07-02T14:23:01.691Z,24.20
2018-07-02T14:27:57.297Z,24.20
2018-07-02T14:32:52.936Z,24.20
2018-07-02T14:37:48.447Z,24.20
2018-07-02T14:42:43.937Z,24.20
2018-07-02T14:47:39.454Z,23.90
2018-07-02T14:52:35.666Z,23.90
2018-07-02T14:57:31.118Z,24.10
2018-07-02T15:02:26.578Z,24.20
2018-07-02T15:07:22.750Z,24.20
2018-07-02T15:12:39.817Z,24.10
2018-07-02T15:17:42.352Z,24.10
2018-07-02T15:22:37.650Z,24.00
2018-07-02T15:27:33.402Z,24.10
2018-07-02T15:32:30.455Z,24.10
2018-07-02T15:37:26.348Z,24.00
2018-07-02T15:42:23.411Z,24.00
2018-07-02T15:47:19.475Z,23.80
2018-07-02T15:52:14.930Z,23.80
2018-07-02T16:02:06.592Z,23.60
2018-07-02T16:07:04.576Z,23.60
2018-07-02T16:16:56.486Z,23.30
2018-07-02T16:21:52.252Z,23.40
2018-07-02T16:26:48.667Z,23.40
2018-07-02T16:31:44.037Z,23.30
2018-07-02T16:36:40.854Z,23.30
2018-07-02T16:41:36.874Z,23.20
2018-07-02T16:46:33.523Z,23.10
2018-07-02T16:51:29.009Z,23.00
2018-07-02T16:56:24.622Z,23.00
2018-07-02T17:01:20.122Z,22.90
2018-07-02T17:06:16.501Z,22.70
2018-07-02T17:11:11.978Z,22.70
2018-07-02T17:16:07.574Z,22.70
2018-07-02T17:25:58.588Z,22.40
2018-07-02T17:30:54.032Z,22.40
2018-07-02T17:35:50.573Z,22.30
2018-07-02T17:40:47.205Z,22.30
2018-07-02T17:45:43.285Z,22.20
2018-07-02T17:50:39.609Z,22.20
2018-07-02T17:55:36.405Z,22.00
2018-07-02T18:00:31.964Z,21.90
2018-07-02T18:05:27.594Z,21.90
2018-07-02T18:10:23.522Z,21.70
2018-07-02T18:15:19.090Z,21.70
2018-07-02T18:20:14.481Z,21.60
2018-07-02T18:25:10.477Z,21.60
2018-07-02T18:30:06.863Z,21.40
2018-07-02T18:36:05.673Z,21.30
2018-07-02T18:41:01.090Z,21.20
2018-07-02T18:45:57.680Z,21.10
2018-07-02T18:50:54.557Z,21.10
2018-07-02T18:55:50.438Z,21.00
2018-07-02T19:00:46.283Z,21.00
2018-07-02T19:05:41.978Z,20.90
2018-07-02T19:10:37.871Z,20.70
2018-07-02T19:15:33.319Z,20.60
2018-07-02T19:20:28.964Z,20.50
2018-07-02T19:25:25.650Z,20.40
2018-07-02T19:30:21.199Z,20.20
2018-07-02T19:35:16.747Z,20.00
2018-07-02T19:40:12.765Z,19.90
2018-07-02T19:45:11.137Z,19.70
2018-07-02T19:55:05.103Z,19.30
2018-07-02T20:00:01.251Z,19.10
2018-07-02T20:04:57.291Z,18.90
2018-07-02T20:09:52.683Z,18.70
2018-07-02T20:14:49.917Z,18.50
2018-07-02T20:19:45.230Z,18.40
2018-07-02T20:24:40.887Z,18.30
2018-07-02T20:29:36.750Z,18.10
2018-07-02T20:34:32.651Z,17.90
2018-07-02T20:39:27.986Z,17.70
2018-07-02T20:44:24.028Z,17.40
2018-07-02T20:49:19.997Z,17.20
2018-07-02T20:54:15.430Z,17.00
2018-07-02T20:59:11.078Z,16.90
2018-07-02T21:04:07.099Z,16.80
2018-07-02T21:09:03.866Z,16.60
2018-07-02T21:13:59.691Z,16.70
2018-07-02T21:18:55.377Z,16.70
2018-07-02T21:23:51.302Z,16.50
2018-07-02T21:28:46.681Z,16.40
2018-07-02T21:33:42.440Z,16.40
2018-07-02T21:38:38.880Z,16.20
2018-07-02T21:43:34.363Z,15.90
2018-07-02T21:48:29.781Z,15.80
2018-07-02T21:53:25.618Z,15.60
2018-07-02T21:58:21.566Z,15.50
2018-07-02T22:08:12.578Z,15.40
2018-07-02T22:13:08.289Z,15.40
2018-07-02T22:18:05.268Z,15.30
2018-07-02T22:23:01.010Z,15.20
2018-07-02T22:27:56.499Z,15.10
2018-07-02T22:32:51.962Z,15.00
2018-07-02T22:37:47.847Z,15.00
2018-07-02T22:42:43.505Z,14.90
2018-07-02T22:47:39.081Z,14.90
2018-07-02T22:52:36.469Z,14.90
2018-07-02T22:57:31.944Z,14.80
2018-07-02T23:02:30.167Z,14.80
2018-07-02T23:07:25.864Z,14.70
2018-07-02T23:12:21.133Z,14.60
2018-07-02T23:17:17.260Z,14.50
2018-07-02T23:22:13.120Z,14.40
2018-07-02T23:27:08.968Z,14.30
2018-07-02T23:32:08.509Z,14.30
2018-07-02T23:37:04.852Z,14.40
2018-07-02T23:42:01.479Z,14.30
2018-07-02T23:46:58.148Z,14.20
2018-07-02T23:51:55.458Z,14.20
